createdAt,value
2019-06-20T00:05:07.646Z,98276.36
2019-06-20T00:10:15.085Z,98288.48
2019-06-20T00:15:22.421Z,98284.60
2019-06-20T00:20:29.727Z,98297.12
2019-06-20T00:25:37.273Z,98302.85
2019-06-20T00:30:44.653Z,98294.37
2019-06-20T00:35:52.008Z,98303.44
2019-06-20T00:40:59.292Z,98293.92
2019-06-20T00:46:06.588Z,98290.61
2019-06-20T00:51:14.021Z,98284.72
2019-06-20T00:56:21.444Z,98277.29
2019-06-20T01:01:28.792Z,98289.08
2019-06-20T01:06:36.258Z,98295.30
2019-06-20T01:11:43.524Z,98290.05
2019-06-20T01:16:50.819Z,98279.06
2019-06-20T01:21:58.103Z,98282.60
2019-06-20T01:27:05.503Z,98282.16
2019-06-20T01:32:12.840Z,98279.77
2019-06-20T01:37:20.220Z,98277.97
2019-06-20T01:42:27.539Z,98271.70
2019-06-20T01:47:34.811Z,98268.77
2019-06-20T01:58:43.247Z,98260.91
2019-06-20T02:03:50.566Z,98268.84
2019-06-20T02:08:57.968Z,98267.66
2019-06-20T02:14:07.713Z,98267.44
2019-06-20T02:19:15.313Z,98263.70
2019-06-20T02:24:22.649Z,98254.90
2019-06-20T02:29:30.029Z,98248.45
2019-06-20T02:34:37.393Z,98257.53
2019-06-20T02:39:44.825Z,98257.02
2019-06-20T02:44:52.244Z,98260.05
2019-06-20T02:49:59.676Z,98259.18
2019-06-20T02:55:07.551Z,98246.36
2019-06-20T03:00:16.462Z,98252.88
2019-06-20T03:05:23.877Z,98253.48
2019-06-20T03:10:31.295Z,98256.27
2019-06-20T03:15:38.724Z,98261.93
2019-06-20T03:20:46.119Z,98260.11
2019-06-20T03:25:53.522Z,98264.16
2019-06-20T03:31:00.847Z,98281.31
2019-06-20T03:36:08.182Z,98334.73
2019-06-20T03:41:15.475Z,98314.19
2019-06-20T03:46:22.759Z,98309.53
2019-06-20T03:51:30.097Z,98303.08
2019-06-20T03:56:37.434Z,98290.05
2019-06-20T04:01:44.802Z,98286.95
2019-06-20T04:06:52.254Z,98291.93
2019-06-20T04:11:59.568Z,98296.52
2019-06-20T04:17:06.931Z,98320.80
2019-06-20T04:22:14.293Z,98318.01
2019-06-20T04:27:21.619Z,98309.27
2019-06-20T04:32:29.007Z,98327.90
2019-06-20T04:37:36.413Z,98339.42
2019-06-20T04:42:43.784Z,98363.08
2019-06-20T04:47:51.122Z,98377.66
2019-06-20T04:52:58.417Z,98392.14
2019-06-20T04:58:05.785Z,98407.08
2019-06-20T05:03:13.258Z,98410.58
2019-06-20T05:08:20.681Z,98418.34
2019-06-20T05:13:27.983Z,98430.26
2019-06-20T05:18:35.306Z,98456.88
2019-06-20T05:23:42.597Z,98461.70
2019-06-20T05:28:49.830Z,98473.31
2019-06-20T05:33:57.169Z,98483.75
2019-06-20T05:39:04.954Z,98483.87
2019-06-20T05:44:12.355Z,98485.11
2019-06-20T05:49:19.706Z,98506.48
2019-06-20T05:54:27.146Z,98505.41
2019-06-20T05:59:34.585Z,98467.03
2019-06-20T06:04:41.833Z,98459.95
2019-06-20T06:09:49.169Z,98469.56
2019-06-20T06:14:56.688Z,98487.36
2019-06-20T06:20:04.068Z,98485.56
2019-06-20T06:25:12.534Z,98485.59
2019-06-20T06:30:20.481Z,98483.80
2019-06-20T06:35:27.931Z,98489.94
2019-06-20T06:40:35.272Z,98497.14
2019-06-20T06:45:42.696Z,98508.97
2019-06-20T06:50:50.105Z,98506.14
2019-06-20T06:55:58.352Z,98510.16
2019-06-20T07:01:07.181Z,98512.13
2019-06-20T07:06:14.892Z,98509.16
2019-06-20T07:11:22.210Z,98501.98
2019-06-20T07:16:29.671Z,98479.25
2019-06-20T07:21:36.986Z,98492.31
2019-06-20T07:26:44.446Z,98496.03
2019-06-20T07:31:51.971Z,98491.22
2019-06-20T07:36:59.311Z,98500.34
2019-06-20T07:42:06.612Z,98507.20
2019-06-20T07:47:17.851Z,98493.82
2019-06-20T07:52:22.911Z,98499.06
2019-06-20T07:57:30.213Z,98534.67
2019-06-20T08:02:37.720Z,98540.09
2019-06-20T08:07:45.064Z,98518.99
2019-06-20T08:12:52.439Z,98549.30
2019-06-20T08:17:59.764Z,98541.71
2019-06-20T08:23:08.527Z,98539.70
2019-06-20T08:28:15.819Z,98523.48
2019-06-20T08:33:23.195Z,98525.86
2019-06-20T08:38:30.575Z,98528.38
2019-06-20T08:43:37.971Z,98526.46
2019-06-20T08:48:45.398Z,98522.16
2019-06-20T08:53:52.758Z,98524.30
2019-06-20T08:59:00.610Z,98538.33
2019-06-20T09:04:08.002Z,98552.02
2019-06-20T09:09:15.419Z,98540.82
2019-06-20T09:14:22.826Z,98534.08
2019-06-20T09:19:30.145Z,98530.06
2019-06-20T09:24:37.515Z,98541.72
2019-06-20T09:29:44.914Z,98545.50
2019-06-20T09:34:53.021Z,98553.66
2019-06-20T09:40:01.205Z,98554.05
2019-06-20T09:45:09.250Z,98544.92
2019-06-20T09:50:18.473Z,98557.18
2019-06-20T09:55:26.002Z,98553.91
2019-06-20T10:00:34.582Z,98556.75
2019-06-20T10:05:41.950Z,98555.98
2019-06-20T10:10:50.623Z,98551.13
2019-06-20T10:15:58.551Z,98546.44
2019-06-20T10:21:05.963Z,98543.83
2019-06-20T10:26:13.186Z,98538.08
2019-06-20T10:31:21.603Z,98535.35
2019-06-20T10:36:28.922Z,98549.26
2019-06-20T10:41:36.275Z,98546.13
2019-06-20T10:46:44.576Z,98553.34
2019-06-20T10:51:52.652Z,98561.59
2019-06-20T10:57:00.061Z,98559.86
2019-06-20T11:02:07.522Z,98553.94
2019-06-20T11:07:14.854Z,98546.81
2019-06-20T11:12:22.266Z,98555.34
2019-06-20T11:17:29.580Z,98548.89
2019-06-20T11:22:38.416Z,98543.97
2019-06-20T11:27:47.331Z,98549.27
2019-06-20T11:32:54.938Z,98547.02
2019-06-20T11:38:02.338Z,98546.11
2019-06-20T11:43:09.704Z,98542.43
2019-06-20T11:48:17.111Z,98549.40
2019-06-20T11:53:24.550Z,98543.78
2019-06-20T11:58:32.044Z,98536.70
2019-06-20T12:03:40.650Z,98538.30
2019-06-20T12:08:49.042Z,98551.09
2019-06-20T12:13:56.536Z,98532.96
2019-06-20T12:19:04.029Z,98543.48
2019-06-20T12:24:11.380Z,98538.77
2019-06-20T12:29:18.831Z,98536.49
2019-06-20T12:34:26.162Z,98555.85
2019-06-20T12:39:33.416Z,98533.15
2019-06-20T12:44:41.679Z,98529.84
2019-06-20T12:49:50.615Z,98551.17
2019-06-20T12:54:58.158Z,98562.39
2019-06-20T13:00:06.287Z,98548.42
2019-06-20T13:05:14.816Z,98545.34
2019-06-20T13:10:22.994Z,98532.98
2019-06-20T13:15:31.298Z,98557.05
2019-06-20T13:20:39.320Z,98556.70
2019-06-20T13:25:48.902Z,98554.91
2019-06-20T13:30:56.401Z,98554.83
2019-06-20T13:36:03.863Z,98553.81
2019-06-20T13:41:11.257Z,98551.91
2019-06-20T13:46:18.868Z,98558.08
2019-06-20T13:51:26.451Z,98549.28
2019-06-20T13:56:33.743Z,98556.34
2019-06-20T14:01:42.074Z,98541.48
2019-06-20T14:06:49.905Z,98542.03
2019-06-20T14:11:58.266Z,98521.66
2019-06-20T14:17:05.658Z,98520.13
2019-06-20T14:22:13.001Z,98500.40
2019-06-20T14:27:20.503Z,98507.44
2019-06-20T14:32:28.038Z,98495.82
2019-06-20T14:37:36.488Z,98485.34
2019-06-20T14:42:44.550Z,98479.56
2019-06-20T14:47:53.314Z,98496.22
2019-06-20T14:53:00.746Z,98486.47
2019-06-20T14:58:09.314Z,98486.60
2019-06-20T15:03:16.844Z,98491.97
2019-06-20T15:08:24.150Z,98482.38
2019-06-20T15:13:32.113Z,98468.50
2019-06-20T15:18:39.500Z,98474.80
2019-06-20T15:23:48.836Z,98484.98
2019-06-20T15:28:56.982Z,98477.35
2019-06-20T15:34:04.547Z,98462.00
2019-06-20T15:39:12.100Z,98450.02
2019-06-20T15:44:19.468Z,98443.12
2019-06-20T15:49:26.798Z,98446.20
2019-06-20T15:54:34.260Z,98440.50
2019-06-20T15:59:42.272Z,98431.12
2019-06-20T16:04:49.756Z,98430.48
2019-06-20T16:09:58.036Z,98434.66
2019-06-20T16:15:06.398Z,98442.91
2019-06-20T16:20:13.985Z,98450.05
2019-06-20T16:25:21.472Z,98457.45
2019-06-20T16:30:28.867Z,98464.33
2019-06-20T16:35:36.097Z,98456.59
2019-06-20T16:40:50.473Z,98461.22
2019-06-20T16:45:57.876Z,98465.84
2019-06-20T16:51:05.497Z,98473.20
2019-06-20T16:56:12.948Z,98487.95
2019-06-20T17:01:20.375Z,98476.18
2019-06-20T17:06:28.012Z,98471.19
2019-06-20T17:11:35.446Z,98469.05
2019-06-20T17:16:42.801Z,98469.91
2019-06-20T17:21:50.197Z,98481.11
2019-06-20T17:26:57.655Z,98490.61
2019-06-20T17:32:05.088Z,98496.81
2019-06-20T17:37:13.558Z,98503.03
2019-06-20T17:42:21.013Z,98498.02
2019-06-20T17:47:28.755Z,98501.75
2019-06-20T17:52:37.107Z,98514.16
2019-06-20T17:57:44.436Z,98516.88
2019-06-20T18:02:51.805Z,98526.92
2019-06-20T18:08:11.410Z,98520.80
2019-06-20T18:13:08.200Z,98526.56
2019-06-20T18:18:15.585Z,98540.63
2019-06-20T18:23:23.031Z,98547.36
2019-06-20T18:28:30.420Z,98538.97
2019-06-20T18:33:37.807Z,98541.88
2019-06-20T18:38:45.841Z,98547.92
2019-06-20T18:43:53.296Z,98549.63
2019-06-20T18:49:00.604Z,98546.60
2019-06-20T18:54:08.086Z,98548.18
2019-06-20T18:59:15.599Z,98559.66
2019-06-20T19:04:23.187Z,98574.72
2019-06-20T19:09:30.567Z,98577.41
2019-06-20T19:14:37.859Z,98588.01
2019-06-20T19:19:46.354Z,98600.37
2019-06-20T19:24:53.861Z,98603.83
2019-06-20T19:30:01.410Z,98601.46
2019-06-20T19:35:10.430Z,98605.13
2019-06-20T19:40:18.838Z,98601.55
2019-06-20T19:45:27.597Z,98607.45
2019-06-20T19:50:34.917Z,98601.41
2019-06-20T19:55:43.045Z,98608.91
2019-06-20T20:00:50.358Z,98628.60
2019-06-20T20:05:58.546Z,98647.02
2019-06-20T20:11:06.109Z,98671.38
2019-06-20T20:16:13.537Z,98705.74
2019-06-20T20:21:20.897Z,98706.73
2019-06-20T20:26:28.321Z,98720.92
2019-06-20T20:31:35.604Z,98717.41
2019-06-20T20:36:43.447Z,98690.80
2019-06-20T20:41:50.732Z,98693.81
2019-06-20T20:46:58.109Z,98728.61
2019-06-20T20:52:05.697Z,98719.39
2019-06-20T20:57:13.201Z,98722.58
2019-06-20T21:02:20.591Z,98726.30
2019-06-20T21:07:28.039Z,98733.98
2019-06-20T21:12:35.531Z,98751.39
2019-06-20T21:17:42.992Z,98755.00
2019-06-20T21:22:50.418Z,98755.55
2019-06-20T21:27:57.837Z,98760.03
2019-06-20T21:33:05.248Z,98759.23
2019-06-20T21:38:12.696Z,98756.10
2019-06-20T21:43:20.169Z,98756.52
2019-06-20T22:17:00.160Z,98757.13
2019-06-20T22:22:07.794Z,98748.30
2019-06-20T22:27:15.163Z,98764.50
2019-06-20T22:32:22.587Z,98757.25
2019-06-20T22:37:30.029Z,98756.52
2019-06-20T22:42:37.634Z,98766.80
2019-06-20T22:47:45.074Z,98755.35
2019-06-20T22:52:52.551Z,98758.24
2019-06-20T22:58:00.075Z,98764.03
2019-06-20T23:03:08.203Z,98762.98
2019-06-20T23:08:15.724Z,98776.56
2019-06-20T23:14:10.310Z,98777.16
2019-06-20T23:19:17.843Z,98773.28
2019-06-20T23:24:25.518Z,98772.86
2019-06-20T23:29:33.025Z,98782.27
2019-06-20T23:34:40.532Z,98788.45
2019-06-20T23:39:48.024Z,98786.89
2019-06-20T23:44:55.564Z,98794.14
2019-06-20T23:50:03.201Z,98792.59
2019-06-20T23:55:10.947Z,98799.84
